Time;durP1;ratioP1;P1;durP2;ratioP2;P2;SDS_P1;SDS_P2;PMS_P1;PMS_P2;Temp;Humidity;BMP_temperature;BMP_pressure;BME280_temperature;BME280_humidity;BME280_pressure;Samples;Min_cycle;Max_cycle;Signal;HPM_P1;HPM_P2
2022/02/16 00:02:12;;;;;;;4.50;4.00;;;2.70;87.70;;;1.11;86.47;97688.09;5036064;28;20524;-80
2022/02/16 00:04:40;;;;;;;8.00;4.40;;;2.70;88.20;;;1.16;86.07;97684.13;5034027;28;20482;-79
2022/02/16 00:07:07;;;;;;;7.10;4.07;;;2.70;88.40;;;1.17;86.33;97696.44;5030799;28;20817;-81
2022/02/16 00:09:34;;;;;;;4.37;3.97;;;2.60;88.60;;;1.10;85.97;97691.75;5014325;28;20448;-80
2022/02/16 00:12:01;;;;;;;3.40;3.10;;;2.60;88.50;;;1.16;85.90;97698.25;5017887;28;20478;-79
2022/02/16 00:14:28;;;;;;;5.50;4.00;;;2.60;88.10;;;1.16;85.92;97684.97;5017326;28;20439;-78
2022/02/16 00:16:56;;;;;;;3.70;3.27;;;2.60;88.30;;;1.18;85.74;97682.13;5033168;28;20432;-78
2022/02/16 00:19:24;;;;;;;4.10;3.70;;;2.60;88.10;;;1.09;86.08;97692.75;5031496;28;20566;-79
2022/02/16 00:21:52;;;;;;;3.83;3.40;;;2.60;88.20;;;1.19;85.37;97673.16;5020118;28;20506;-77
2022/02/16 00:24:19;;;;;;;5.63;4.10;;;2.70;87.40;;;0.68;85.41;97599.53;5017098;28;20900;-78
2022/02/16 00:26:47;;;;;;;3.57;3.20;;;2.60;87.60;;;1.26;85.13;97669.69;5015810;28;20467;-79
2022/02/16 00:29:14;;;;;;;4.03;3.40;;;2.70;87.30;;;1.21;85.45;97665.84;5022529;28;20876;-78
2022/02/16 00:31:42;;;;;;;6.80;3.90;;;2.70;87.00;;;1.10;85.41;97654.50;5014246;28;20444;-78
2022/02/16 00:34:10;;;;;;;4.97;3.80;;;2.70;86.80;;;0.66;85.32;97577.59;5015516;28;20528;-76
2022/02/16 00:36:38;;;;;;;5.00;4.33;;;2.70;87.10;;;1.16;85.26;97665.50;5013527;28;20910;-78
2022/02/16 00:39:06;;;;;;;4.07;3.67;;;2.70;86.70;;;1.20;85.28;97664.19;5015220;28;20443;-78
2022/02/16 00:41:33;;;;;;;5.23;3.20;;;2.70;87.00;;;1.19;85.33;97658.00;5029920;28;20463;-78
2022/02/16 00:44:00;;;;;;;4.43;3.57;;;2.70;87.10;;;1.17;85.54;97643.22;5036167;28;20486;-77
2022/02/16 00:46:27;;;;;;;3.83;3.30;;;2.60;87.40;;;1.12;85.63;97657.81;5033370;28;20474;-77
2022/02/16 00:48:54;;;;;;;3.77;3.07;;;2.60;87.50;;;0.97;86.01;97632.84;5034595;28;20506;-79
2022/02/16 00:51:21;;;;;;;4.70;3.67;;;2.50;88.10;;;1.04;86.12;97643.69;5033755;28;20525;-79
2022/02/16 00:53:51;;;;;;;7.17;4.53;;;2.50;88.60;;;0.98;86.08;97647.81;5033274;28;20435;-78
2022/02/16 00:56:18;;;;;;;3.90;3.40;;;2.50;88.20;;;1.06;86.23;97657.66;5033781;28;20451;-77
2022/02/16 00:58:45;;;;;;;3.77;3.47;;;2.60;88.10;;;1.08;85.58;97661.81;5031447;28;20485;-78
2022/02/16 01:01:12;;;;;;;4.63;3.33;;;2.60;87.70;;;1.10;85.51;97659.00;5034691;28;20488;-76
2022/02/16 01:03:39;;;;;;;4.30;3.90;;;2.60;87.60;;;1.20;85.43;97641.03;5034042;28;20478;-78
2022/02/16 01:06:06;;;;;;;5.93;3.93;;;2.70;87.50;;;1.29;85.18;97655.22;5033935;28;20517;-77
2022/02/16 01:08:33;;;;;;;5.17;3.73;;;2.70;86.70;;;1.23;85.55;97638.06;5032994;28;20454;-78
2022/02/16 01:11:02;;;;;;;6.43;4.23;;;2.70;87.10;;;1.21;85.15;97645.34;5030419;28;20938;-78
2022/02/16 01:13:29;;;;;;;3.77;3.37;;;2.70;86.30;;;1.22;85.26;97631.09;5033123;28;20438;-77
2022/02/16 01:15:56;;;;;;;3.53;3.23;;;2.70;86.50;;;1.16;85.16;97637.06;5032987;28;20442;-77
2022/02/16 01:18:23;;;;;;;4.27;3.80;;;2.70;86.10;;;1.27;84.56;97639.41;5034841;28;20517;-78
2022/02/16 01:20:50;;;;;;;7.60;3.87;;;2.70;86.50;;;1.30;84.32;97630.25;5033805;28;20525;-78
2022/02/16 01:23:17;;;;;;;4.30;3.13;;;2.80;85.70;;;1.33;84.17;97632.59;5038576;28;20466;-79
2022/02/16 01:25:44;;;;;;;3.67;3.30;;;2.80;85.10;;;1.44;83.76;97622.56;5038299;28;20474;-79
2022/02/16 01:28:12;;;;;;;2.97;2.77;;;2.80;84.60;;;1.44;83.14;97622.56;5037610;28;20522;-79
2022/02/16 01:30:39;;;;;;;3.13;2.80;;;2.90;83.80;;;1.51;83.05;97619.09;5032512;28;21266;-80
2022/02/16 01:33:06;;;;;;;3.67;3.10;;;2.90;83.50;;;1.47;82.89;97620.44;5020498;28;20497;-79
2022/02/16 01:35:33;;;;;;;3.63;3.00;;;2.90;82.70;;;1.49;82.43;97609.63;5017289;28;20439;-78
2022/02/16 01:38:00;;;;;;;4.30;3.30;;;3.00;82.60;;;1.61;82.33;97618.09;5016986;28;20499;-79
2022/02/16 01:40:27;;;;;;;2.73;2.53;;;3.00;82.40;;;1.64;81.59;97601.75;5017249;28;20532;-79
2022/02/16 01:42:54;;;;;;;3.07;2.77;;;3.10;81.90;;;1.66;81.19;97605.94;5018540;28;20464;-79
2022/02/16 01:45:27;;;;;;;4.00;3.03;;;3.10;81.10;;;1.48;81.21;97581.34;5017800;28;20467;-79
2022/02/16 01:47:54;;;;;;;3.43;2.90;;;3.10;80.60;;;1.67;80.67;97590.81;5030859;28;20461;-79
2022/02/16 01:50:23;;;;;;;3.50;2.80;;;3.20;80.60;;;1.72;80.55;97585.78;5020828;28;20458;-80
2022/02/16 01:52:50;;;;;;;3.53;2.83;;;3.20;80.80;;;1.69;80.92;97594.94;5053682;28;20471;-79
2022/02/16 01:55:18;;;;;;;3.83;3.20;;;3.20;80.40;;;1.57;80.76;97566.16;5037673;28;20439;-80
2022/02/16 01:57:46;;;;;;;4.03;3.17;;;3.20;80.30;;;1.70;80.48;97577.94;5038118;28;20452;-80
2022/02/16 02:00:14;;;;;;;4.40;3.00;;;3.20;80.10;;;1.76;80.49;97573.78;5037247;28;20442;-79
2022/02/16 02:02:43;;;;;;;5.80;3.60;;;3.20;80.20;;;1.74;80.60;97565.13;5035750;28;20470;-79
2022/02/16 02:05:11;;;;;;;3.50;3.00;;;3.20;80.10;;;1.78;80.42;97565.63;5037783;28;20452;-79
2022/02/16 02:07:40;;;;;;;4.13;2.47;;;3.30;80.10;;;1.72;80.25;97560.97;5028871;28;20492;-79
2022/02/16 02:10:08;;;;;;;3.30;3.00;;;3.20;79.80;;;1.72;80.23;97556.50;5017584;28;20469;-79
2022/02/16 02:12:44;;;;;;;3.80;2.80;;;3.20;79.70;;;1.81;80.29;97560.78;5018078;28;20442;-79
2022/02/16 02:15:11;;;;;;;4.00;2.63;;;3.20;80.00;;;1.78;80.20;97554.97;5018183;28;20878;-80
2022/02/16 02:17:39;;;;;;;5.90;2.47;;;3.20;79.80;;;1.86;79.88;97544.28;5030596;28;20447;-81
2022/02/16 02:20:20;;;;;;;4.93;2.97;;;3.20;79.80;;;1.84;79.80;97539.16;5019358;28;20498;-81
2022/02/16 02:22:47;;;;;;;4.10;2.90;;;3.30;79.60;;;1.90;79.45;97534.97;5017953;28;20470;-80
2022/02/16 02:25:14;;;;;;;3.60;2.70;;;3.30;79.50;;;1.93;78.96;97521.28;5020159;28;20439;-82
2022/02/16 02:27:42;;;;;;;3.00;2.70;;;3.40;78.90;;;1.99;78.87;97525.09;5022158;28;20464;-81
2022/02/16 02:30:10;;;;;;;3.23;2.83;;;3.50;78.90;;;2.02;78.84;97518.56;5032594;28;20953;-82
2022/02/16 02:32:41;;;;;;;6.43;2.90;;;3.50;78.80;;;2.02;79.13;97530.09;5037513;28;20442;-81
2022/02/16 02:35:11;;;;;;;4.43;3.10;;;3.50;78.80;;;2.14;78.34;97521.72;5037658;28;20437;-82
2022/02/16 02:37:39;;;;;;;3.27;2.90;;;3.50;78.40;;;2.16;78.16;97515.19;5036229;28;20466;-82
2022/02/16 02:40:08;;;;;;;5.10;2.80;;;3.60;78.40;;;2.21;77.90;97509.34;5037545;28;20511;-80
2022/02/16 02:42:37;;;;;;;3.23;2.90;;;3.70;78.30;;;2.26;77.95;97515.81;5036867;28;20557;-78
2022/02/16 02:45:07;;;;;;;3.80;3.23;;;3.70;78.20;;;2.25;77.95;97507.97;5036707;28;20894;-80
2022/02/16 02:47:35;;;;;;;3.03;2.57;;;3.70;78.10;;;2.28;77.67;97496.13;5036909;28;20576;-80
2022/02/16 02:50:02;;;;;;;3.20;2.63;;;3.70;77.90;;;2.31;77.84;97493.97;5036484;28;20490;-79
2022/02/16 02:52:31;;;;;;;4.80;3.23;;;3.70;77.80;;;2.25;77.48;97475.97;5036051;28;20442;-78
2022/02/16 02:54:58;;;;;;;2.70;2.20;;;3.80;77.70;;;2.42;77.59;97498.06;5036831;28;20525;-78
2022/02/16 02:57:25;;;;;;;3.37;2.67;;;3.90;77.80;;;2.42;76.86;97484.72;5035620;28;20540;-79
2022/02/16 02:59:52;;;;;;;4.57;2.67;;;3.80;77.40;;;2.35;77.26;97481.09;5036297;28;20861;-79
2022/02/16 03:02:19;;;;;;;2.50;2.30;;;3.80;77.40;;;2.39;77.26;97479.75;5034755;28;20454;-78
2022/02/16 03:04:46;;;;;;;5.13;3.00;;;3.80;77.50;;;2.33;77.43;97475.09;5035923;28;20453;-79
2022/02/16 03:07:12;;;;;;;3.80;2.80;;;3.80;77.20;;;2.40;77.50;97473.41;5035063;28;20501;-79
2022/02/16 03:09:41;;;;;;;2.70;2.50;;;3.80;77.40;;;2.35;77.10;97451.75;5036505;28;20637;-79
2022/02/16 03:12:08;;;;;;;4.13;2.37;;;3.90;77.50;;;2.47;77.24;97457.53;5036118;28;20434;-79
2022/02/16 03:14:35;;;;;;;5.63;3.10;;;3.90;77.30;;;2.46;76.88;97456.69;5035382;28;20957;-78
2022/02/16 03:17:03;;;;;;;3.80;2.73;;;3.90;77.40;;;2.51;77.03;97457.00;5035915;28;20852;-78
2022/02/16 03:19:31;;;;;;;2.53;2.20;;;3.90;77.20;;;2.53;76.21;97446.16;5035246;28;20518;-79
2022/02/16 03:21:58;;;;;;;3.17;2.00;;;4.00;77.00;;;2.53;76.32;97441.66;5036218;28;20512;-77
2022/02/16 03:24:25;;;;;;;5.50;2.40;;;4.00;76.80;;;2.53;76.09;97431.00;5035870;28;20529;-77
2022/02/16 03:26:53;;;;;;;6.27;2.27;;;4.10;76.80;;;2.64;76.23;97451.06;5034898;28;20928;-78
2022/02/16 03:29:20;;;;;;;4.90;2.37;;;4.10;76.60;;;2.63;76.06;97445.91;5052333;28;20489;-79
2022/02/16 03:31:47;;;;;;;4.70;2.83;;;4.10;76.70;;;2.52;75.92;97428.50;5035375;28;20485;-78
2022/02/16 03:34:17;;;;;;;2.50;2.30;;;4.10;76.60;;;2.65;76.12;97435.88;5034110;28;20439;-80
2022/02/16 03:36:44;;;;;;;3.70;2.57;;;4.10;76.50;;;2.72;75.70;97436.84;5036043;28;20537;-79
2022/02/16 03:39:11;;;;;;;2.90;2.60;;;4.20;76.40;;;2.42;75.83;97391.41;5036108;28;20526;-79
2022/02/16 03:41:38;;;;;;;3.03;2.60;;;4.10;76.30;;;2.30;74.87;97344.84;5034353;28;20893;-79
2022/02/16 03:44:06;;;;;;;3.27;2.40;;;4.20;76.20;;;2.87;75.11;97425.38;5033889;28;20498;-78
2022/02/16 03:46:34;;;;;;;5.27;2.70;;;4.30;76.10;;;2.69;75.37;97426.53;5036086;28;20470;-77
2022/02/16 03:49:01;;;;;;;3.00;2.30;;;4.20;75.90;;;2.81;75.53;97424.25;5034472;28;20444;-78
2022/02/16 03:51:28;;;;;;;3.47;3.17;;;4.20;76.20;;;2.88;75.07;97427.03;5034156;28;20437;-78
2022/02/16 03:53:55;;;;;;;4.43;2.40;;;4.30;76.00;;;2.93;74.80;97427.31;5030581;28;20847;-78
2022/02/16 03:56:22;;;;;;;3.37;2.20;;;4.30;75.90;;;2.77;75.42;97413.09;5036113;28;20449;-78
2022/02/16 03:58:48;;;;;;;2.80;2.13;;;4.30;75.80;;;2.93;75.18;97419.31;5034957;28;20458;-79
2022/02/16 04:01:17;;;;;;;4.53;2.13;;;4.30;75.90;;;2.88;75.24;97419.88;5026539;28;20479;-78
2022/02/16 04:03:44;;;;;;;2.50;2.30;;;4.30;75.80;;;2.88;75.12;97416.34;5037847;28;20491;-78
2022/02/16 04:06:12;;;;;;;4.17;2.77;;;4.30;75.60;;;2.90;75.33;97419.66;5053635;28;20446;-76
2022/02/16 04:08:39;;;;;;;2.77;2.30;;;4.30;75.80;;;3.00;75.03;97430.09;5036418;28;20509;-77
2022/02/16 04:11:06;;;;;;;2.40;2.20;;;4.40;76.00;;;2.98;74.98;97424.94;5030533;28;20533;-77
2022/02/16 04:13:33;;;;;;;6.03;2.90;;;4.40;76.00;;;2.98;74.88;97409.75;5035343;28;20475;-78
2022/02/16 04:16:00;;;;;;;2.67;2.20;;;4.40;75.90;;;2.99;74.88;97418.59;5033965;28;20435;-78
2022/02/16 04:18:28;;;;;;;3.27;2.67;;;4.40;76.00;;;2.95;75.18;97420.78;5035295;28;20549;-79
2022/02/16 04:20:55;;;;;;;3.07;2.77;;;4.40;76.10;;;2.92;75.79;97402.47;5034795;28;20486;-77
2022/02/16 04:23:22;;;;;;;2.37;2.00;;;4.40;76.10;;;2.89;75.94;97420.69;5031709;28;20953;-79
2022/02/16 04:25:49;;;;;;;4.00;2.63;;;4.30;76.20;;;2.94;76.37;97399.59;5034224;28;20438;-78
2022/02/16 04:28:19;;;;;;;3.23;2.83;;;4.30;76.60;;;3.01;76.13;97402.38;5030522;28;20478;-79
2022/02/16 04:30:47;;;;;;;3.43;2.50;;;4.40;76.70;;;2.91;76.09;97394.63;5035330;28;20780;-77
2022/02/16 04:33:14;;;;;;;2.87;2.50;;;4.30;76.60;;;2.77;76.49;97394.44;5033677;28;20439;-79
2022/02/16 04:35:42;;;;;;;3.37;2.60;;;4.30;76.70;;;2.80;76.62;97393.25;5035486;28;20481;-78
2022/02/16 04:38:09;;;;;;;3.37;2.67;;;4.30;76.80;;;2.76;76.82;97390.09;5034814;28;20454;-78
2022/02/16 04:40:37;;;;;;;4.00;3.00;;;4.20;76.80;;;2.21;77.49;97288.94;5034620;28;20469;-77
2022/02/16 04:43:05;;;;;;;2.73;2.50;;;4.20;77.30;;;2.80;77.00;97377.25;5030179;28;20493;-78
2022/02/16 04:45:34;;;;;;;3.30;2.60;;;4.20;77.30;;;2.76;77.83;97366.09;5034381;28;20797;-77
2022/02/16 04:48:03;;;;;;;3.97;2.30;;;4.20;77.50;;;2.68;78.14;97368.84;5033077;28;20912;-78
2022/02/16 04:50:30;;;;;;;4.90;3.00;;;4.20;77.60;;;2.74;78.09;97367.31;5032999;28;20526;-77
2022/02/16 04:52:58;;;;;;;3.03;2.73;;;4.10;77.70;;;2.75;77.86;97363.63;5033456;28;20534;-80
2022/02/16 04:55:27;;;;;;;3.00;2.47;;;4.20;77.80;;;2.80;78.97;97363.91;5035202;28;20426;-79
2022/02/16 04:57:54;;;;;;;4.17;2.60;;;4.20;78.30;;;2.77;78.15;97351.75;5032630;28;20478;-80
2022/02/16 05:00:23;;;;;;;3.70;2.30;;;4.20;78.40;;;2.84;77.84;97351.84;5028947;28;20942;-79
2022/02/16 05:02:50;;;;;;;3.43;2.90;;;4.30;77.80;;;2.85;77.70;97361.50;5029614;28;20459;-79
2022/02/16 05:05:16;;;;;;;3.47;3.17;;;4.30;77.80;;;2.58;77.39;97317.59;5033317;28;20445;-80
2022/02/16 05:07:43;;;;;;;2.70;2.30;;;4.30;77.70;;;2.91;77.35;97360.78;5049549;28;20435;-80
2022/02/16 05:10:12;;;;;;;3.03;2.50;;;4.30;77.90;;;2.81;77.57;97339.72;5033424;28;20826;-79
2022/02/16 05:12:41;;;;;;;3.70;2.67;;;4.30;77.70;;;2.86;77.70;97341.00;5035233;28;20435;-80
2022/02/16 05:15:09;;;;;;;4.63;2.60;;;4.30;77.90;;;2.91;77.18;97349.28;5033975;28;20457;-80
2022/02/16 05:17:36;;;;;;;3.80;2.57;;;4.30;77.50;;;2.93;77.19;97360.59;5032910;28;20450;-82
2022/02/16 05:20:04;;;;;;;3.20;2.30;;;4.40;77.70;;;2.98;77.37;97352.88;5034505;28;20439;-79
2022/02/16 05:22:32;;;;;;;4.10;2.63;;;4.40;77.80;;;2.89;78.57;97343.28;5034064;28;20848;-79
2022/02/16 05:24:59;;;;;;;4.23;2.40;;;4.30;77.90;;;2.89;78.20;97330.78;5033970;28;20446;-80
2022/02/16 05:27:27;;;;;;;5.17;3.07;;;4.30;78.10;;;2.90;78.68;97336.94;5031528;28;20464;-78
2022/02/16 05:29:54;;;;;;;15.10;9.70;;;4.30;78.60;;;2.79;78.85;97331.03;5030628;28;20443;-81
2022/02/16 05:32:21;;;;;;;2.80;2.10;;;4.20;78.30;;;2.84;78.52;97325.16;5032224;28;20612;-77
2022/02/16 05:34:48;;;;;;;2.40;2.10;;;4.30;78.70;;;2.87;79.28;97323.97;5033554;28;20477;-78
2022/02/16 05:37:15;;;;;;;3.97;2.97;;;4.30;78.90;;;2.49;78.87;97272.31;5033895;28;20475;-79
2022/02/16 05:39:43;;;;;;;2.67;1.97;;;4.30;78.80;;;2.94;79.05;97315.06;5034105;28;20433;-74
2022/02/16 05:42:10;;;;;;;2.93;2.37;;;4.40;79.30;;;3.10;79.27;97324.69;5033754;28;20967;-75
2022/02/16 05:44:38;;;;;;;4.90;2.47;;;4.50;79.70;;;3.06;78.90;97320.75;5035932;28;20462;-71
2022/02/16 05:47:06;;;;;;;5.50;2.00;;;4.50;79.50;;;2.98;78.21;97283.50;5033472;28;20430;-69
2022/02/16 05:49:33;;;;;;;2.60;2.10;;;4.60;79.00;;;3.06;78.96;97315.41;5032035;28;20439;-69
2022/02/16 05:52:00;;;;;;;2.70;2.27;;;4.50;79.00;;;3.07;78.77;97314.41;5033102;28;20477;-72
2022/02/16 05:54:28;;;;;;;2.97;2.77;;;4.50;79.10;;;2.93;79.28;97294.72;5033306;28;20482;-69
2022/02/16 05:56:55;;;;;;;6.00;5.40;;;4.50;79.70;;;2.90;80.28;97291.59;5033364;28;20446;-69
2022/02/16 05:59:22;;;;;;;3.77;2.40;;;4.40;79.90;;;2.95;80.22;97297.19;5033137;28;20443;-71
2022/02/16 06:01:50;;;;;;;2.17;1.97;;;4.40;80.40;;;2.96;80.96;97291.69;5030581;28;20541;-84
2022/02/16 06:04:17;;;;;;;3.30;2.37;;;4.30;81.10;;;3.00;79.67;97288.63;5034844;28;20462;-79
2022/02/16 06:06:44;;;;;;;6.13;2.83;;;4.40;80.10;;;2.95;81.10;97284.69;5035119;28;20458;-75
2022/02/16 06:09:11;;;;;;;2.33;2.00;;;4.40;81.40;;;3.04;81.30;97277.41;5037630;28;20470;-74
2022/02/16 06:11:38;;;;;;;2.57;2.37;;;4.40;81.80;;;2.82;82.22;97280.00;5053148;28;20517;-73
2022/02/16 06:14:07;;;;;;;3.60;2.70;;;4.30;82.10;;;2.83;82.73;97270.13;5032409;28;20454;-75
2022/02/16 06:16:34;;;;;;;2.83;2.07;;;4.30;83.20;;;2.91;81.63;97271.88;5037039;28;20446;-75
2022/02/16 06:19:03;;;;;;;3.00;2.50;;;4.30;82.80;;;2.85;82.61;97267.31;5036713;28;20443;-73
2022/02/16 06:21:30;;;;;;;4.07;2.30;;;4.30;83.40;;;2.73;83.13;97273.09;5036497;28;20993;-76
2022/02/16 06:23:57;;;;;;;2.60;2.10;;;4.20;84.00;;;2.80;82.81;97258.00;5036842;28;20461;-75
2022/02/16 06:26:24;;;;;;;7.10;2.40;;;4.20;84.00;;;2.80;81.91;97249.97;5036111;28;20438;-77
2022/02/16 06:28:51;;;;;;;3.00;2.70;;;4.20;83.20;;;2.74;82.96;97256.06;5036697;28;20435;-76
2022/02/16 06:31:18;;;;;;;6.83;2.57;;;4.20;83.80;;;2.75;83.15;97230.22;5035602;28;20732;-77
2022/02/16 06:33:45;;;;;;;5.50;2.60;;;4.20;84.80;;;2.76;82.56;97238.03;5036448;28;20620;-77
2022/02/16 06:36:13;;;;;;;3.10;2.30;;;4.20;83.50;;;2.77;83.21;97252.22;5035434;28;20529;-76
2022/02/16 06:38:40;;;;;;;3.37;2.57;;;4.20;84.10;;;2.81;83.89;97262.34;5036063;28;20963;-76
2022/02/16 06:41:07;;;;;;;3.03;2.10;;;4.20;85.20;;;2.86;82.35;97244.94;5035029;28;20475;-77
2022/02/16 06:43:34;;;;;;;3.80;2.70;;;4.30;83.90;;;2.90;82.88;97259.56;5036092;28;20553;-78
2022/02/16 06:46:01;;;;;;;3.53;3.23;;;4.30;83.70;;;2.94;82.46;97250.16;5036170;28;20478;-77
2022/02/16 06:48:28;;;;;;;2.43;2.10;;;4.30;83.80;;;2.91;82.48;97255.88;5034960;28;20442;-77
2022/02/16 06:50:55;;;;;;;5.67;3.00;;;4.30;83.70;;;2.97;83.44;97233.81;5037030;28;20795;-78
2022/02/16 06:53:23;;;;;;;5.53;2.57;;;4.40;84.60;;;2.87;82.30;97238.59;5036859;28;20521;-78
2022/02/16 06:55:50;;;;;;;3.03;2.33;;;4.40;82.90;;;3.00;82.33;97228.09;5035995;28;20534;-73
2022/02/16 06:58:18;;;;;;;3.03;2.73;;;4.40;83.00;;;3.00;82.02;97244.09;5036735;28;20452;-74
2022/02/16 07:00:45;;;;;;;5.70;2.80;;;4.40;82.30;;;3.07;81.85;97245.00;5035837;28;20951;-75
2022/02/16 07:03:13;;;;;;;3.40;2.10;;;4.50;83.70;;;3.19;80.74;97241.84;5034451;28;20474;-74
2022/02/16 07:05:40;;;;;;;2.00;1.90;;;4.50;81.60;;;3.05;81.13;97215.00;5034911;28;20438;-73
2022/02/16 07:08:08;;;;;;;2.83;2.20;;;4.50;81.70;;;3.18;81.19;97224.19;5027820;28;20546;-73
2022/02/16 07:10:36;;;;;;;4.13;2.30;;;4.50;82.10;;;3.16;80.69;97220.88;5014779;28;20987;-73
2022/02/16 07:13:03;;;;;;;3.10;1.70;;;4.60;81.60;;;3.24;79.96;97223.41;5015791;28;20207;-75
2022/02/16 07:15:31;;;;;;;3.07;2.30;;;4.60;80.80;;;3.25;80.43;97215.25;5017971;28;20949;-74
2022/02/16 07:18:00;;;;;;;2.30;2.10;;;4.60;81.20;;;3.27;79.92;97212.38;5031883;28;20424;-76
2022/02/16 07:20:28;;;;;;;2.70;2.13;;;4.70;80.90;;;3.15;80.69;97203.22;5016019;28;20439;-78
2022/02/16 07:22:55;;;;;;;4.30;2.27;;;4.60;80.80;;;3.31;79.59;97210.16;5015959;28;20527;-77
2022/02/16 07:25:24;;;;;;;4.60;2.87;;;4.70;80.60;;;3.33;80.09;97208.94;5031554;28;20816;-75
2022/02/16 07:27:52;;;;;;;1.67;1.53;;;4.80;81.00;;;3.42;78.56;97198.16;5015714;28;20431;-76
2022/02/16 07:30:19;;;;;;;2.03;1.83;;;4.80;79.80;;;3.43;79.33;97183.78;5030553;28;20436;-78
2022/02/16 07:32:46;;;;;;;3.70;1.87;;;4.80;79.70;;;3.43;77.98;97189.13;5014258;28;20534;-74
2022/02/16 07:35:14;;;;;;;2.57;2.37;;;4.90;79.30;;;3.53;78.27;97189.63;5014203;28;20427;-73
2022/02/16 07:37:42;;;;;;;5.60;2.03;;;4.90;79.50;;;3.53;78.50;97179.78;5015622;28;20451;-73
2022/02/16 07:40:10;;;;;;;2.80;1.97;;;4.90;79.60;;;3.62;78.18;97161.78;5015010;28;20448;-74
2022/02/16 07:42:37;;;;;;;2.30;1.80;;;5.00;79.60;;;3.65;78.55;97160.56;5015302;28;20439;-73
2022/02/16 07:45:07;;;;;;;2.37;2.00;;;5.00;79.80;;;3.66;77.88;97176.41;5015571;28;20486;-73
2022/02/16 07:47:35;;;;;;;3.33;1.73;;;5.10;79.40;;;3.45;78.50;97136.34;5015638;28;20506;-73
2022/02/16 07:50:02;;;;;;;2.20;1.90;;;5.10;79.60;;;3.76;78.57;97183.28;5015755;28;20444;-72
2022/02/16 07:52:31;;;;;;;4.00;2.40;;;5.10;79.40;;;3.85;78.23;97166.06;5013990;28;20972;-73
2022/02/16 07:54:59;;;;;;;2.50;1.60;;;5.20;79.50;;;3.82;78.19;97174.47;5030099;28;20450;-74
2022/02/16 07:57:26;;;;;;;2.27;1.70;;;5.20;79.20;;;3.92;77.08;97161.63;5015631;28;20542;-73
2022/02/16 07:59:55;;;;;;;3.60;1.80;;;5.30;79.20;;;4.01;76.90;97158.78;5015561;28;20887;-75
2022/02/16 08:02:23;;;;;;;3.20;1.93;;;5.40;78.60;;;4.03;77.29;97156.75;5015233;28;20450;-73
2022/02/16 08:04:50;;;;;;;3.70;1.80;;;5.40;79.00;;;4.06;77.55;97156.38;5030680;28;20474;-72
2022/02/16 08:07:17;;;;;;;2.60;2.10;;;5.40;78.70;;;3.55;76.90;97072.72;5013299;28;20506;-73
2022/02/16 08:09:44;;;;;;;2.07;1.70;;;5.40;78.50;;;3.99;76.71;97145.63;5013603;28;20530;-72
2022/02/16 08:12:12;;;;;;;9.17;2.37;;;5.40;78.50;;;4.14;76.24;97148.19;5029974;28;20478;-73
2022/02/16 08:14:39;;;;;;;2.37;2.10;;;5.50;78.30;;;4.30;76.30;97143.53;5029770;28;20915;-74
2022/02/16 08:17:07;;;;;;;4.17;1.87;;;5.60;78.50;;;4.33;75.58;97146.66;5013286;28;20439;-74
2022/02/16 08:19:36;;;;;;;3.10;1.80;;;5.70;77.90;;;4.56;75.10;97148.25;5013378;28;20497;-74
2022/02/16 08:22:03;;;;;;;2.03;1.60;;;5.90;77.80;;;4.44;74.93;97128.41;5013568;28;20440;-74
2022/02/16 08:24:31;;;;;;;2.00;1.30;;;5.80;77.50;;;4.57;75.39;97124.97;5014038;28;20837;-74
2022/02/16 08:26:59;;;;;;;1.70;1.60;;;5.80;77.60;;;4.47;76.18;97115.44;5014726;28;20475;-75
2022/02/16 08:29:26;;;;;;;1.80;1.47;;;5.90;77.50;;;4.45;75.55;97122.03;5012774;28;20463;-75
2022/02/16 08:31:53;;;;;;;3.30;1.80;;;5.90;77.60;;;4.48;75.22;97124.31;5014826;28;20910;-74
2022/02/16 08:34:21;;;;;;;1.47;1.07;;;5.90;77.50;;;4.65;74.66;97116.78;5014523;28;20523;-73
2022/02/16 08:36:55;;;;;;;1.43;1.30;;;5.90;77.30;;;4.51;75.46;97106.03;5012775;28;20530;-73
2022/02/16 08:39:24;;;;;;;2.53;1.50;;;6.00;77.50;;;4.71;74.91;97105.28;5014605;28;20436;-72
2022/02/16 08:41:51;;;;;;;2.50;1.47;;;6.00;77.30;;;4.67;74.76;97109.38;5014164;28;20967;-73
2022/02/16 08:44:18;;;;;;;5.00;1.60;;;6.00;77.00;;;4.67;75.17;97101.34;5014711;28;20470;-73
2022/02/16 08:46:45;;;;;;;4.33;1.43;;;6.10;77.10;;;4.89;74.09;97095.84;5014360;28;20450;-73
2022/02/16 08:49:12;;;;;;;4.63;1.80;;;6.20;76.80;;;4.73;74.46;97076.47;5012761;28;20535;-72
2022/02/16 08:51:39;;;;;;;2.90;2.00;;;6.20;76.70;;;4.90;74.40;97076.09;5014068;28;20534;-76
2022/02/16 08:54:07;;;;;;;1.87;1.30;;;6.20;76.80;;;5.09;73.72;97069.97;5013958;28;20497;-77
2022/02/16 08:56:35;;;;;;;3.27;1.50;;;6.40;76.70;;;5.23;74.34;97075.31;5014589;28;20467;-78
2022/02/16 08:59:03;;;;;;;3.80;2.00;;;6.50;76.80;;;5.33;73.66;97074.94;5013353;28;20818;-74
2022/02/16 09:01:32;;;;;;;3.10;1.80;;;6.60;76.40;;;5.70;72.52;97069.19;5014259;28;20966;-73
2022/02/16 09:03:59;;;;;;;1.90;1.40;;;6.90;76.30;;;5.67;71.96;97073.09;5012778;28;20517;-73
2022/02/16 09:06:26;;;;;;;4.10;1.53;;;7.00;75.70;;;5.91;71.85;97062.72;5013648;28;20443;-73
2022/02/16 09:08:53;;;;;;;2.73;1.50;;;7.10;75.70;;;5.81;71.51;97050.59;5014138;28;20435;-72
2022/02/16 09:11:22;;;;;;;2.40;1.40;;;7.20;75.40;;;5.79;71.14;97057.19;5013994;28;20475;-72
2022/02/16 09:13:49;;;;;;;3.37;1.50;;;7.10;75.00;;;5.85;71.09;97048.31;5013915;28;20479;-73
2022/02/16 09:16:17;;;;;;;1.80;1.33;;;7.10;75.20;;;5.66;71.54;97042.75;5014280;28;20443;-73
2022/02/16 09:18:44;;;;;;;2.40;1.40;;;7.10;75.00;;;5.68;72.26;97035.34;5030180;28;20450;-73
2022/02/16 09:21:10;;;;;;;1.30;1.20;;;7.10;75.30;;;5.86;71.73;97041.94;5036285;28;20448;-72
2022/02/16 09:23:40;;;;;;;2.13;1.43;;;7.10;75.30;;;5.84;71.75;97033.28;5019182;28;20452;-75
2022/02/16 09:26:08;;;;;;;1.83;1.40;;;7.20;75.30;;;5.77;72.39;97037.81;5014573;28;20439;-76
2022/02/16 09:28:37;;;;;;;2.27;1.30;;;7.10;75.40;;;5.88;71.98;97034.50;5014267;28;20454;-75
2022/02/16 09:31:06;;;;;;;1.20;1.00;;;7.20;75.30;;;6.09;70.56;97021.88;5026372;28;20446;-83
2022/02/16 09:33:33;;;;;;;2.80;1.30;;;7.40;74.80;;;6.11;70.77;97027.06;5034716;28;20443;-85
2022/02/16 09:36:00;;;;;;;3.93;1.40;;;7.40;74.80;;;6.07;71.07;97032.00;5028712;28;20508;-82
2022/02/16 09:38:27;;;;;;;1.50;1.40;;;7.40;75.10;;;6.01;70.79;97016.75;5021709;28;20903;-71
2022/02/16 09:40:55;;;;;;;5.23;1.10;;;7.40;74.50;;;5.94;71.44;97028.28;5013920;28;20440;-71
2022/02/16 09:43:23;;;;;;;2.10;1.73;;;7.30;74.80;;;6.00;71.51;97020.47;5016853;28;20439;-72
2022/02/16 09:45:55;;;;;;;1.47;1.30;;;7.30;75.20;;;6.11;71.97;97010.97;5032825;28;20502;-71
2022/02/16 09:48:22;;;;;;;2.33;1.40;;;7.40;75.30;;;5.99;72.70;97018.78;5018177;28;20526;-72
2022/02/16 09:50:50;;;;;;;1.53;1.43;;;7.40;75.50;;;6.30;71.54;97011.94;5032390;28;20442;-73
2022/02/16 09:53:17;;;;;;;4.60;1.50;;;7.50;75.50;;;6.21;72.04;97001.41;5016371;28;20523;-72
2022/02/16 09:55:44;;;;;;;1.90;1.70;;;7.60;75.60;;;6.21;73.09;97006.78;5016363;28;20543;-71
2022/02/16 09:58:11;;;;;;;1.50;1.40;;;7.60;76.30;;;6.15;72.94;96993.41;5032419;28;20965;-71
2022/02/16 10:00:39;;;;;;;1.60;1.30;;;7.50;75.90;;;6.33;72.18;96995.41;5032549;28;20481;-72
2022/02/16 10:03:14;;;;;;;3.67;1.50;;;7.60;75.80;;;6.16;72.87;96995.03;5017214;28;20447;-72
2022/02/16 10:05:41;;;;;;;3.30;1.80;;;7.50;76.00;;;6.09;73.66;97000.44;5017146;28;20553;-73
2022/02/16 10:08:08;;;;;;;8.33;2.00;;;7.40;76.30;;;6.13;72.94;97008.88;5033059;28;20451;-72
2022/02/16 10:10:35;;;;;;;3.20;1.70;;;7.50;76.30;;;6.19;72.99;97002.66;5032284;28;20522;-72
2022/02/16 10:13:04;;;;;;;4.40;2.03;;;7.50;76.20;;;5.77;73.31;96933.28;5016480;28;20550;-72
2022/02/16 10:15:43;;;;;;;1.93;1.23;;;7.50;76.40;;;6.09;74.62;96998.59;5017060;28;20450;-73
2022/02/16 10:18:16;;;;;;;2.23;1.50;;;7.40;76.80;;;6.18;74.22;96993.81;5017227;28;20474;-72
2022/02/16 10:20:44;;;;;;;2.10;1.77;;;7.50;76.90;;;6.29;73.97;97007.56;5017156;28;20439;-72
2022/02/16 10:23:12;;;;;;;2.43;1.50;;;7.60;77.10;;;6.37;74.54;96989.41;5017184;28;20534;-71
2022/02/16 10:25:48;;;;;;;3.57;1.00;;;7.70;77.50;;;6.27;74.58;96978.28;5031996;28;20553;-72
2022/02/16 10:28:18;;;;;;;4.43;1.50;;;7.60;77.40;;;6.42;75.17;96986.06;5032457;28;20442;-73
2022/02/16 10:30:57;;;;;;;2.80;1.50;;;7.70;77.90;;;6.27;76.10;96982.81;5016440;28;20451;-72
2022/02/16 10:33:28;;;;;;;4.27;1.50;;;7.70;78.30;;;6.22;76.17;96984.28;5016808;28;20443;-73
2022/02/16 10:36:01;;;;;;;4.23;1.70;;;7.70;78.30;;;6.51;76.16;96979.41;5032484;28;20557;-73